EPEL weather

Elblag Airport
Warmia-Masuria, Poland

Public forecast

Using degrees Celsius for public forecast. Weather courtesy of forecast.io.

Closest aviation weather report (METAR) to Elblag Airport

Closest report is Gdańsk Lech Wałęsa Airport, 36.5 nm (67.5 km) WNW. Retrieved 2020/02/28 20:00 UTC (28 minutes ago):

EPGD 282000Z 28008KT 9999 -RA FEW004 BKN010 02/01 Q1007

Closest aviation forecast (TAF) to Elblag Airport

Closest forecast is Gdańsk Lech Wałęsa Airport, 36.5 nm (67.5 km) WNW. Retrieved 2020/02/28 18:33 UTC (2 hours ago):

TAF TAF EPGD 281730Z 2818/2918 25012KT 9999 BKN014 TEMPO 2818/2821 -SHRA BKN008 BKN014CB BECMG 2820/2822 BKN007 TEMPO 2822/2907 3000 BR BKN004 BECMG 2904/2906 18010KT BECMG 2906/2908 BKN020 BECMG 2912/2914 -RA BKN012 TEMPO 2912/2918 2500 RASN BR BKN004 OVC008